Spokane, Missouri
Current Conditions -  °F | °C
As of 4:15 PM on Monday 20 Oct 2014 (Local Time) from KFWB Reporting Station
Broken Clouds Broken Clouds  
Wind Chill: 72°   Ceiling: 3400
Heat Index: 72°   Visibility: 10mi
Dew Point: 57°   Wind: 7mph
Humidity: 60%   Direction: 260°W
Pressure: 30.03"   Gusts: NA
Location:  36.87°N, 93.3°W
Report Text: KFWB 202115Z AUTO 26006KT 10SM BKN034 BKN040 22/14 A3003 RMK AO2
Loading
Personal Weather Stations






























Interactive Weather Map
Tropical Storm Tracking
New forecast layout! Learn more

10-Day Weather Forecast

Advertisements
Track Severe Weather on mobile